Time;durP1;ratioP1;P1;durP2;ratioP2;P2;SDS_P1;SDS_P2;PMS_P1;PMS_P2;Temp;Humidity;BMP_temperature;BMP_pressure;BME280_temperature;BME280_humidity;BME280_pressure;Samples;Min_cycle;Max_cycle;Signal;HPM_P1;HPM_P2
2022/05/28 00:02:04;;;;;;;3.17;1.30;;;15.10;64.60;;;;;;4987617;28;20238;-81
2022/05/28 00:04:30;;;;;;;1.97;0.80;;;15.00;64.70;;;;;;5011976;28;20064;-81
2022/05/28 00:06:55;;;;;;;5.00;1.20;;;15.00;64.70;;;;;;5002263;28;20034;-81
2022/05/28 00:09:21;;;;;;;3.60;1.13;;;14.90;64.70;;;;;;4987438;28;20038;-80
2022/05/28 00:11:47;;;;;;;3.58;1.38;;;14.80;64.80;;;;;;4981599;28;20223;-81
2022/05/28 00:14:12;;;;;;;2.50;1.13;;;14.80;64.90;;;;;;5013211;28;20040;-81
2022/05/28 00:16:39;;;;;;;4.40;1.02;;;14.70;65.00;;;;;;4983679;28;20045;-81
2022/05/28 00:19:06;;;;;;;2.25;1.00;;;14.60;65.00;;;;;;5003336;28;20041;-81
2022/05/28 00:21:32;;;;;;;2.17;0.90;;;14.50;65.10;;;;;;5001725;28;20048;-81
2022/05/28 00:23:58;;;;;;;4.63;1.13;;;14.50;65.30;;;;;;4976558;28;20038;-81
2022/05/28 00:26:24;;;;;;;2.78;1.00;;;14.40;65.30;;;;;;5014060;28;20029;-81
2022/05/28 00:28:51;;;;;;;2.75;1.20;;;14.40;65.40;;;;;;4979530;28;20213;-81
2022/05/28 00:31:16;;;;;;;2.75;1.10;;;14.30;65.50;;;;;;4996065;28;20680;-80
2022/05/28 00:33:42;;;;;;;3.70;0.93;;;14.20;65.60;;;;;;4982879;28;20129;-81
2022/05/28 00:36:10;;;;;;;2.45;1.05;;;14.20;65.80;;;;;;5019160;28;20095;-81
2022/05/28 00:38:36;;;;;;;2.97;1.10;;;14.10;65.90;;;;;;4979862;28;20482;-80
2022/05/28 00:41:03;;;;;;;2.37;1.00;;;14.00;66.00;;;;;;4992820;28;20045;-81
2022/05/28 00:43:30;;;;;;;4.00;1.15;;;14.00;66.20;;;;;;4979473;28;20029;-80
2022/05/28 00:46:23;;;;;;;2.83;1.10;;;13.90;66.20;;;;;;5009297;28;20103;-81
2022/05/28 00:48:53;;;;;;;2.40;1.20;;;13.80;67.30;;;;;;4976207;28;20033;-80
2022/05/28 00:51:31;;;;;;;2.80;1.02;;;13.80;66.40;;;;;;5013960;28;20034;-81
2022/05/28 00:54:00;;;;;;;2.00;1.00;;;13.70;67.00;;;;;;4991156;28;20065;-81
2022/05/28 00:56:27;;;;;;;4.47;1.20;;;13.70;66.70;;;;;;4986296;28;20050;-80
2022/05/28 00:58:54;;;;;;;2.92;0.98;;;13.60;66.60;;;;;;4987405;28;20044;-81
2022/05/28 01:01:22;;;;;;;2.95;1.08;;;13.60;66.70;;;;;;4985680;28;20671;-81
2022/05/28 01:03:56;;;;;;;2.35;1.05;;;13.50;66.80;;;;;;4980716;28;20147;-81
2022/05/28 01:06:44;;;;;;;4.77;1.10;;;13.50;67.30;;;;;;4989896;28;20045;-81
2022/05/28 01:09:18;;;;;;;2.28;1.08;;;13.50;67.80;;;;;;5008461;28;20655;-81
2022/05/28 01:12:13;;;;;;;2.20;1.00;;;13.50;67.50;;;;;;4985064;28;20045;-80
2022/05/28 01:14:38;;;;;;;2.42;1.00;;;13.40;68.00;;;;;;4991854;28;20450;-81
2022/05/28 01:17:13;;;;;;;1.73;0.90;;;13.40;67.00;;;;;;5023518;28;20038;-81
2022/05/28 01:20:06;;;;;;;3.25;1.00;;;13.30;67.50;;;;;;5022084;28;20038;-81
2022/05/28 01:22:31;;;;;;;1.75;0.77;;;13.20;68.10;;;;;;4986575;28;20432;-80
2022/05/28 01:25:10;;;;;;;2.37;0.90;;;13.20;67.20;;;;;;4977082;28;20044;-81
2022/05/28 01:27:44;;;;;;;2.83;0.80;;;13.20;67.70;;;;;;4983262;28;20049;-81
2022/05/28 01:30:13;;;;;;;2.38;1.10;;;13.20;67.70;;;;;;5002273;28;20128;-81
2022/05/28 01:32:41;;;;;;;2.63;1.00;;;13.10;67.60;;;;;;4986579;28;20038;-80
2022/05/28 01:35:12;;;;;;;2.10;1.00;;;13.00;67.60;;;;;;5004454;28;20079;-81
2022/05/28 01:37:39;;;;;;;1.67;0.80;;;13.00;67.80;;;;;;5016132;28;20526;-81
2022/05/28 01:40:08;;;;;;;2.63;1.10;;;13.00;67.60;;;;;;4987492;28;20080;-81
2022/05/28 01:42:37;;;;;;;2.97;1.30;;;12.90;67.80;;;;;;4980973;28;20037;-80
2022/05/28 01:45:04;;;;;;;1.47;0.73;;;12.90;67.90;;;;;;4983242;28;20100;-81
2022/05/28 01:47:33;;;;;;;1.40;0.75;;;12.80;67.90;;;;;;4999298;28;20112;-81
2022/05/28 01:50:00;;;;;;;2.38;1.02;;;12.80;68.10;;;;;;5007234;28;20063;-81
2022/05/28 01:52:28;;;;;;;1.67;0.90;;;12.80;68.20;;;;;;5007474;28;20060;-81
2022/05/28 01:54:56;;;;;;;2.58;1.10;;;12.80;68.30;;;;;;4980959;28;20100;-81
2022/05/28 01:57:22;;;;;;;1.67;0.90;;;12.70;68.40;;;;;;4973096;28;21556;-80
2022/05/28 01:59:48;;;;;;;2.47;1.08;;;12.70;68.20;;;;;;5000786;28;20718;-81
2022/05/28 02:02:15;;;;;;;1.83;1.20;;;12.70;68.40;;;;;;4983730;28;20313;-80
2022/05/28 02:04:43;;;;;;;2.17;1.00;;;12.60;68.40;;;;;;5004963;28;20029;-81
2022/05/28 02:07:09;;;;;;;2.30;0.97;;;12.60;68.50;;;;;;5003138;28;20083;-80
2022/05/28 02:09:46;;;;;;;2.47;0.90;;;12.60;68.60;;;;;;5012221;28;20030;-81
2022/05/28 02:12:12;;;;;;;5.63;1.20;;;12.60;69.00;;;;;;5013148;28;20047;-81
2022/05/28 02:15:09;;;;;;;1.87;1.03;;;12.50;69.40;;;;;;4996445;28;20038;-80
2022/05/28 02:17:46;;;;;;;1.83;0.82;;;12.40;69.30;;;;;;4988706;28;20136;-81
2022/05/28 02:20:35;;;;;;;1.38;0.80;;;12.40;69.00;;;;;;4993411;28;20040;-80
2022/05/28 02:23:07;;;;;;;3.35;1.00;;;12.40;69.00;;;;;;4981369;28;20092;-80
2022/05/28 02:26:03;;;;;;;3.40;1.10;;;12.30;68.90;;;;;;5016031;28;20041;-80
2022/05/28 02:28:32;;;;;;;2.50;0.83;;;12.30;69.90;;;;;;5007264;28;21290;-81
2022/05/28 02:31:02;;;;;;;1.75;0.80;;;12.30;69.00;;;;;;4993435;28;20061;-80
2022/05/28 02:33:30;;;;;;;1.88;0.90;;;12.20;69.00;;;;;;4981014;28;20228;-81
2022/05/28 02:35:56;;;;;;;2.15;0.90;;;12.20;69.10;;;;;;4983602;28;20045;-80
2022/05/28 02:38:22;;;;;;;1.60;0.90;;;12.10;69.10;;;;;;5011436;28;20168;-80
2022/05/28 02:40:47;;;;;;;1.85;0.90;;;12.10;69.10;;;;;;5014244;28;20261;-80
2022/05/28 02:43:13;;;;;;;2.50;1.00;;;12.10;69.10;;;;;;4998555;28;20060;-81
2022/05/28 02:45:39;;;;;;;2.67;1.00;;;12.10;69.30;;;;;;4975722;28;20040;-81
2022/05/28 02:48:06;;;;;;;2.03;0.80;;;12.00;69.30;;;;;;4971164;28;20190;-80
2022/05/28 02:50:31;;;;;;;1.80;0.90;;;12.10;69.40;;;;;;4992672;28;20026;-81
2022/05/28 02:52:57;;;;;;;3.42;1.00;;;12.00;69.50;;;;;;4984460;28;20520;-80
2022/05/28 02:55:23;;;;;;;2.10;0.80;;;12.00;69.50;;;;;;4985163;28;20517;-80
2022/05/28 02:57:49;;;;;;;2.45;0.90;;;11.90;69.50;;;;;;4995135;28;20437;-80
2022/05/28 03:00:15;;;;;;;2.43;1.00;;;11.90;69.60;;;;;;4996428;28;20055;-80
2022/05/28 03:02:42;;;;;;;2.30;0.98;;;11.90;69.70;;;;;;5004317;28;20030;-80
2022/05/28 03:05:10;;;;;;;2.25;0.93;;;11.90;69.80;;;;;;4997173;28;20038;-80
2022/05/28 03:07:36;;;;;;;3.28;1.10;;;11.80;69.80;;;;;;5020287;28;20084;-81
2022/05/28 03:10:02;;;;;;;2.30;1.00;;;11.80;69.90;;;;;;4985874;28;20454;-81
2022/05/28 03:12:27;;;;;;;2.42;1.10;;;11.80;70.10;;;;;;5012665;28;20653;-80
2022/05/28 03:14:53;;;;;;;2.33;1.00;;;11.80;70.10;;;;;;5014315;28;20462;-80
2022/05/28 03:17:18;;;;;;;1.98;0.93;;;11.80;70.10;;;;;;4978172;28;20245;-80
2022/05/28 03:19:44;;;;;;;2.90;1.10;;;11.80;70.10;;;;;;5001066;28;20158;-80
2022/05/28 03:22:10;;;;;;;2.70;1.10;;;11.70;70.20;;;;;;4987305;28;20220;-80
2022/05/28 03:24:35;;;;;;;2.50;1.10;;;11.70;70.30;;;;;;5011125;28;20053;-81
2022/05/28 03:27:01;;;;;;;2.37;0.90;;;11.70;70.40;;;;;;4987961;28;20079;-81
2022/05/28 03:29:27;;;;;;;1.48;0.90;;;11.70;70.50;;;;;;5029075;28;20158;-81
2022/05/28 03:31:52;;;;;;;3.00;1.02;;;11.70;70.60;;;;;;5004182;28;20069;-80
2022/05/28 03:34:18;;;;;;;2.37;0.80;;;11.60;70.60;;;;;;4981466;28;22697;-81
2022/05/28 03:36:44;;;;;;;2.20;1.00;;;11.60;70.60;;;;;;5023924;28;20021;-80
2022/05/28 03:39:10;;;;;;;3.13;1.00;;;11.60;70.60;;;;;;4994595;28;20034;-80
2022/05/28 03:41:35;;;;;;;3.47;1.00;;;11.60;70.70;;;;;;4990598;28;20033;-81
2022/05/28 03:44:01;;;;;;;2.43;1.10;;;11.60;70.70;;;;;;4987616;28;20100;-80
2022/05/28 03:46:32;;;;;;;2.72;1.00;;;11.60;70.80;;;;;;4997105;28;24715;-80
2022/05/28 03:49:01;;;;;;;1.95;0.90;;;11.60;71.30;;;;;;4985126;28;20080;-80
2022/05/28 03:51:27;;;;;;;1.93;0.90;;;11.60;71.10;;;;;;4983336;28;20502;-81
2022/05/28 03:53:53;;;;;;;2.00;1.00;;;11.60;71.20;;;;;;5004845;28;20139;-84
2022/05/28 03:56:20;;;;;;;2.15;0.88;;;11.60;71.30;;;;;;5021935;28;20046;-80
2022/05/28 03:58:45;;;;;;;3.13;1.00;;;11.60;71.50;;;;;;4981653;28;20042;-80
2022/05/28 04:01:11;;;;;;;2.33;1.02;;;11.60;71.50;;;;;;4990510;28;20172;-80
2022/05/28 04:03:37;;;;;;;3.00;1.23;;;11.60;71.70;;;;;;5016961;28;20474;-80
2022/05/28 04:06:03;;;;;;;2.70;1.00;;;11.60;71.80;;;;;;5000618;28;20417;-80
2022/05/28 04:08:29;;;;;;;1.85;1.10;;;11.60;72.00;;;;;;4978252;28;20684;-80
2022/05/28 04:10:55;;;;;;;3.07;1.10;;;11.60;71.90;;;;;;5016946;28;20132;-80
2022/05/28 04:13:20;;;;;;;1.63;1.00;;;11.60;72.00;;;;;;5015554;28;20139;-80
2022/05/28 04:15:49;;;;;;;2.70;1.20;;;11.70;73.00;;;;;;5002604;28;20033;-81
2022/05/28 04:18:15;;;;;;;2.25;1.02;;;11.60;72.30;;;;;;4988846;28;20534;-80
2022/05/28 04:20:41;;;;;;;1.92;1.15;;;11.70;72.40;;;;;;5001253;28;20049;-80
2022/05/28 04:23:07;;;;;;;2.08;1.00;;;11.70;72.50;;;;;;4969825;28;20445;-80
2022/05/28 04:25:33;;;;;;;5.45;1.20;;;11.70;72.50;;;;;;4994555;28;20083;-81
2022/05/28 04:27:59;;;;;;;1.77;1.00;;;11.70;72.70;;;;;;4983327;28;20471;-81
2022/05/28 04:30:24;;;;;;;4.30;1.10;;;11.70;72.80;;;;;;5008626;28;20100;-81
2022/05/28 04:32:50;;;;;;;1.87;1.20;;;11.80;72.80;;;;;;5022153;28;20026;-80
2022/05/28 04:35:16;;;;;;;2.85;1.10;;;11.80;72.90;;;;;;4989410;28;20137;-81
2022/05/28 04:37:41;;;;;;;2.30;1.10;;;11.80;72.90;;;;;;4977526;28;20343;-80
2022/05/28 04:40:08;;;;;;;2.85;1.02;;;11.80;72.90;;;;;;4983449;28;20026;-80
2022/05/28 04:42:34;;;;;;;3.28;1.15;;;11.90;73.10;;;;;;5010578;28;20478;-80
2022/05/28 04:45:00;;;;;;;2.50;1.10;;;11.90;73.90;;;;;;4992642;28;20038;-81
2022/05/28 04:47:25;;;;;;;3.65;1.00;;;11.90;73.20;;;;;;5008415;28;20222;-80
2022/05/28 04:49:51;;;;;;;2.27;1.07;;;11.90;73.30;;;;;;4981277;28;20036;-81
2022/05/28 04:52:17;;;;;;;2.75;1.33;;;12.00;73.60;;;;;;4995862;28;20428;-80
2022/05/28 04:54:43;;;;;;;5.07;1.60;;;12.00;73.60;;;;;;4999024;28;20407;-81
2022/05/28 04:57:08;;;;;;;2.65;1.20;;;12.10;73.70;;;;;;5000917;28;20165;-80
2022/05/28 04:59:34;;;;;;;2.57;1.00;;;12.20;74.60;;;;;;4977020;28;20289;-80
2022/05/28 05:02:00;;;;;;;2.65;1.20;;;12.20;73.90;;;;;;4995152;28;20046;-81
2022/05/28 05:04:26;;;;;;;4.10;1.37;;;12.20;73.90;;;;;;4963405;28;20030;-80
2022/05/28 05:06:51;;;;;;;2.60;1.10;;;12.30;74.00;;;;;;5020869;28;20514;-80
2022/05/28 05:09:17;;;;;;;3.72;1.20;;;12.40;74.10;;;;;;4990009;28;20033;-81
2022/05/28 05:11:44;;;;;;;2.43;1.00;;;12.40;74.20;;;;;;4989606;28;20550;-79
2022/05/28 05:14:09;;;;;;;2.45;1.20;;;12.50;74.40;;;;;;4981743;28;20034;-81
2022/05/28 05:16:35;;;;;;;3.03;1.20;;;12.60;74.40;;;;;;4984803;28;20430;-80
2022/05/28 05:19:01;;;;;;;2.60;1.23;;;12.60;74.60;;;;;;4989168;28;20037;-81
2022/05/28 05:21:26;;;;;;;2.60;1.33;;;12.70;74.80;;;;;;5002227;28;20587;-81
2022/05/28 05:23:52;;;;;;;3.40;1.20;;;12.80;74.80;;;;;;4979638;28;20029;-81
2022/05/28 05:26:19;;;;;;;4.60;1.40;;;12.90;75.00;;;;;;5000619;28;20398;-80
2022/05/28 05:28:46;;;;;;;3.38;1.23;;;13.00;75.10;;;;;;5010657;28;20030;-80
2022/05/28 05:31:12;;;;;;;3.50;1.25;;;13.00;75.10;;;;;;4973979;28;20307;-80
2022/05/28 05:33:38;;;;;;;3.73;1.20;;;13.10;75.10;;;;;;5003162;28;20317;-80
2022/05/28 05:36:04;;;;;;;3.60;1.35;;;13.20;75.20;;;;;;4975204;28;20029;-80
2022/05/28 05:38:30;;;;;;;2.88;1.25;;;13.30;75.30;;;;;;5023736;28;20149;-81
2022/05/28 05:40:55;;;;;;;3.13;1.40;;;13.40;75.40;;;;;;4972406;28;20116;-81
2022/05/28 05:43:21;;;;;;;2.72;1.20;;;13.40;75.40;;;;;;4995317;28;20132;-80
2022/05/28 05:45:55;;;;;;;4.70;1.27;;;13.50;75.50;;;;;;4993611;28;20508;-81
2022/05/28 05:48:21;;;;;;;3.95;1.50;;;13.60;75.90;;;;;;4980891;28;20034;-83
2022/05/28 05:50:46;;;;;;;2.97;1.40;;;13.70;75.60;;;;;;4987289;28;20021;-83
2022/05/28 05:53:12;;;;;;;3.93;1.30;;;13.80;75.70;;;;;;4982902;28;20060;-83
2022/05/28 05:55:38;;;;;;;3.25;1.20;;;13.90;75.90;;;;;;4994695;28;20037;-83
2022/05/28 05:58:04;;;;;;;4.68;1.30;;;13.90;75.90;;;;;;5001209;28;20046;-83
2022/05/28 06:00:31;;;;;;;2.88;1.13;;;14.00;75.90;;;;;;5003284;28;20792;-83
2022/05/28 06:02:56;;;;;;;3.23;1.20;;;14.20;76.10;;;;;;4977617;28;20041;-82
2022/05/28 06:05:22;;;;;;;2.88;1.23;;;14.20;76.10;;;;;;5010097;28;20532;-83
2022/05/28 06:07:48;;;;;;;3.77;1.30;;;14.30;76.10;;;;;;5006338;28;20061;-83
2022/05/28 06:10:14;;;;;;;3.55;1.30;;;14.40;76.10;;;;;;4992959;28;20120;-83
2022/05/28 06:12:39;;;;;;;3.65;1.20;;;14.50;76.30;;;;;;4993509;28;20049;-83
2022/05/28 06:15:06;;;;;;;3.20;1.17;;;14.60;76.30;;;;;;4994765;28;20525;-82
2022/05/28 06:17:35;;;;;;;4.00;1.20;;;14.70;76.90;;;;;;4980467;28;20394;-83
2022/05/28 06:20:18;;;;;;;2.67;0.90;;;14.70;76.40;;;;;;5004949;28;20090;-83
2022/05/28 06:22:43;;;;;;;5.10;1.30;;;14.80;76.30;;;;;;5011540;28;20068;-83
2022/05/28 06:25:09;;;;;;;4.45;0.90;;;14.90;76.30;;;;;;4986683;28;20030;-83
2022/05/28 06:27:35;;;;;;;3.63;1.00;;;15.00;76.40;;;;;;4954727;28;20035;-81
2022/05/28 06:30:01;;;;;;;3.72;0.90;;;15.10;76.40;;;;;;4991672;28;20037;-80
2022/05/28 06:32:27;;;;;;;3.13;1.20;;;15.20;76.50;;;;;;4996083;28;20036;-80
2022/05/28 06:34:55;;;;;;;3.57;1.40;;;15.30;76.50;;;;;;4974502;28;20033;-80
2022/05/28 06:37:20;;;;;;;5.38;1.10;;;15.40;76.50;;;;;;5001607;28;20565;-81
2022/05/28 06:39:46;;;;;;;3.00;1.00;;;15.50;76.40;;;;;;4997255;28;20044;-81
2022/05/28 06:42:12;;;;;;;5.97;1.40;;;15.60;76.40;;;;;;5007068;28;20068;-81
2022/05/28 06:44:37;;;;;;;2.78;1.00;;;15.70;76.40;;;;;;4985734;28;20419;-82
2022/05/28 06:47:03;;;;;;;4.00;1.10;;;15.80;76.30;;;;;;4995720;28;20045;-80
2022/05/28 06:49:31;;;;;;;2.60;1.05;;;15.90;76.20;;;;;;5008229;28;20131;-81
2022/05/28 06:51:56;;;;;;;3.08;0.93;;;16.00;76.20;;;;;;4989674;28;20033;-81
2022/05/28 06:54:22;;;;;;;3.27;1.00;;;16.10;76.20;;;;;;5005849;28;20044;-81
2022/05/28 06:56:47;;;;;;;13.10;1.05;;;16.30;76.20;;;;;;4980849;28;20522;-80
2022/05/28 06:59:13;;;;;;;4.67;1.00;;;16.40;76.50;;;;;;4976640;28;20048;-80
2022/05/28 07:01:40;;;;;;;3.13;0.90;;;16.50;76.70;;;;;;5006736;28;20042;-81
2022/05/28 07:04:05;;;;;;;2.03;0.80;;;16.70;77.10;;;;;;5006751;28;20080;-80
2022/05/28 07:06:32;;;;;;;3.17;0.80;;;16.80;77.10;;;;;;4991418;28;20621;-80
2022/05/28 07:08:58;;;;;;;2.72;1.00;;;17.00;76.40;;;;;;4973977;28;20498;-80
2022/05/28 07:11:24;;;;;;;2.90;0.97;;;17.20;76.00;;;;;;5012775;28;20025;-80
2022/05/28 07:13:49;;;;;;;3.40;0.80;;;17.30;75.80;;;;;;4996241;28;20584;-83
2022/05/28 07:16:15;;;;;;;2.30;0.70;;;17.50;75.80;;;;;;5016986;28;20064;-82
2022/05/28 07:18:42;;;;;;;2.05;0.70;;;17.60;75.60;;;;;;5016127;28;20308;-81
2022/05/28 07:21:10;;;;;;;1.65;0.70;;;17.90;75.50;;;;;;5010786;28;20045;-81
2022/05/28 07:23:36;;;;;;;1.70;0.70;;;18.00;75.40;;;;;;4976676;28;21640;-81
2022/05/28 07:26:08;;;;;;;1.35;0.70;;;18.20;75.00;;;;;;5015830;28;20422;-80
2022/05/28 07:28:36;;;;;;;2.20;0.77;;;18.40;73.70;;;;;;5008546;28;20634;-82
2022/05/28 07:31:02;;;;;;;1.50;0.50;;;18.50;74.00;;;;;;5028976;28;20084;-81
2022/05/28 07:33:29;;;;;;;2.33;0.65;;;18.60;73.70;;;;;;5011403;28;20050;-81
2022/05/28 07:35:56;;;;;;;2.03;0.60;;;18.80;73.00;;;;;;5008940;28;20089;-80
2022/05/28 07:38:24;;;;;;;1.10;0.50;;;18.80;72.40;;;;;;4995883;28;20691;-81
2022/05/28 07:40:50;;;;;;;2.60;0.80;;;18.80;71.60;;;;;;4996772;28;20045;-81
2022/05/28 07:43:17;;;;;;;0.63;0.57;;;18.80;71.40;;;;;;4991429;28;20029;-80
2022/05/28 07:45:44;;;;;;;2.10;0.60;;;18.80;71.60;;;;;;4989701;28;20167;-81
2022/05/28 07:48:11;;;;;;;2.67;0.70;;;18.70;71.80;;;;;;4994905;28;20091;-78
2022/05/28 07:50:36;;;;;;;2.42;0.70;;;18.90;73.60;;;;;;4988272;28;20029;-78
2022/05/28 07:53:03;;;;;;;2.30;0.70;;;19.00;73.60;;;;;;5006772;28;20036;-77
2022/05/28 07:55:29;;;;;;;1.88;0.60;;;19.20;73.00;;;;;;4985731;28;20328;-78
2022/05/28 07:57:55;;;;;;;5.73;3.33;;;19.30;73.30;;;;;;5017145;28;20034;-78
2022/05/28 08:00:21;;;;;;;2.67;1.30;;;19.60;74.00;;;;;;4968003;28;20756;-78
2022/05/28 08:02:47;;;;;;;2.53;0.93;;;19.80;73.60;;;;;;5002889;28;20036;-77
2022/05/28 08:05:13;;;;;;;1.17;0.80;;;20.10;74.50;;;;;;5012174;28;20040;-78
2022/05/28 08:07:38;;;;;;;1.60;0.77;;;20.40;74.40;;;;;;5014694;28;20045;-78
2022/05/28 08:10:04;;;;;;;1.80;0.70;;;20.70;73.80;;;;;;4992068;28;20030;-78
2022/05/28 08:12:30;;;;;;;3.47;1.02;;;21.00;72.00;;;;;;4998380;28;20034;-77
2022/05/28 08:14:56;;;;;;;3.50;0.63;;;21.10;70.60;;;;;;5021021;28;20029;-77
2022/05/28 08:17:22;;;;;;;1.40;0.73;;;21.20;71.00;;;;;;4971821;28;20277;-77
2022/05/28 08:19:48;;;;;;;1.83;0.80;;;21.50;72.60;;;;;;5009618;28;20052;-77
2022/05/28 08:24:58;;;;;;;1.85;0.77;;;22.10;72.10;;;;;;5009742;28;20084;-78
2022/05/28 08:27:23;;;;;;;1.20;0.80;;;22.50;72.10;;;;;;4995992;28;20414;-79
2022/05/28 08:29:49;;;;;;;0.90;0.70;;;22.80;72.60;;;;;;5004500;28;20036;-78
2022/05/28 08:32:18;;;;;;;0.70;0.60;;;23.30;72.70;;;;;;4994033;28;20025;-79
2022/05/28 08:34:44;;;;;;;1.60;0.65;;;23.70;72.60;;;;;;5020922;28;20378;-78
2022/05/28 08:37:11;;;;;;;2.30;0.70;;;24.20;72.20;;;;;;4987601;28;20040;-78
2022/05/28 08:39:40;;;;;;;0.80;0.60;;;24.70;71.30;;;;;;5001004;28;20124;-78
2022/05/28 08:42:06;;;;;;;0.90;0.60;;;25.20;70.60;;;;;;4982157;28;20120;-78
2022/05/28 08:44:37;;;;;;;2.15;0.70;;;25.60;69.90;;;;;;4998975;28;20611;-78
2022/05/28 08:47:22;;;;;;;2.13;0.70;;;26.10;68.70;;;;;;4997139;28;20026;-79
2022/05/28 08:49:49;;;;;;;2.17;0.70;;;26.50;63.70;;;;;;5004264;28;20040;-77
2022/05/28 08:52:37;;;;;;;1.77;0.73;;;26.90;67.60;;;;;;4995167;28;21032;-78
2022/05/28 08:55:13;;;;;;;1.85;0.70;;;27.30;62.20;;;;;;4996531;28;20052;-79
2022/05/28 08:58:14;;;;;;;1.25;0.70;;;27.60;63.40;;;;;;5019521;28;20049;-79
2022/05/28 09:01:06;;;;;;;1.30;0.70;;;27.90;59.60;;;;;;5009874;28;20042;-78
2022/05/28 09:03:49;;;;;;;1.73;0.80;;;28.20;58.00;;;;;;5007371;28;20048;-78
2022/05/28 09:06:23;;;;;;;1.35;0.70;;;28.30;56.70;;;;;;5014996;28;20257;-78
2022/05/28 09:08:54;;;;;;;1.20;0.70;;;28.50;58.30;;;;;;5005859;28;20446;-78
2022/05/28 09:11:46;;;;;;;1.85;0.80;;;28.70;58.60;;;;;;4992535;28;20038;-78
2022/05/28 09:14:17;;;;;;;2.05;0.60;;;28.90;56.40;;;;;;4972799;28;20048;-79
2022/05/28 09:16:45;;;;;;;0.67;0.67;;;29.10;59.60;;;;;;4972561;28;20698;-79
2022/05/28 09:19:18;;;;;;;1.52;0.65;;;29.10;56.70;;;;;;5017791;28;20133;-78
2022/05/28 09:21:45;;;;;;;2.15;0.85;;;28.90;52.70;;;;;;4987460;28;20758;-79
2022/05/28 09:24:24;;;;;;;1.60;0.57;;;28.60;53.30;;;;;;4993613;28;20064;-79
2022/05/28 09:27:27;;;;;;;2.33;0.70;;;28.10;50.30;;;;;;5019972;28;20216;-78
2022/05/28 09:30:14;;;;;;;1.00;0.60;;;27.50;49.10;;;;;;4986295;28;20030;-79
2022/05/28 09:32:58;;;;;;;1.20;0.63;;;26.90;49.60;;;;;;4992245;28;20041;-78
2022/05/28 09:36:04;;;;;;;1.02;0.80;;;26.60;53.60;;;;;;4991465;28;20034;-79
2022/05/28 09:39:01;;;;;;;1.15;0.70;;;26.60;53.00;;;;;;4987684;28;20108;-78
2022/05/28 09:41:52;;;;;;;2.25;0.70;;;26.60;52.60;;;;;;5013041;28;20207;-78
2022/05/28 09:44:24;;;;;;;3.20;0.80;;;26.50;52.90;;;;;;4987406;28;20029;-78
2022/05/28 09:46:49;;;;;;;2.05;0.70;;;26.30;52.20;;;;;;4999976;28;20033;-77
2022/05/28 09:49:19;;;;;;;0.98;0.60;;;26.00;52.40;;;;;;4988520;28;20376;-77
2022/05/28 09:52:12;;;;;;;2.17;0.70;;;25.70;51.90;;;;;;4999821;28;20037;-77
2022/05/28 09:54:38;;;;;;;1.48;0.70;;;25.30;49.10;;;;;;4996870;28;20045;-78
2022/05/28 09:57:11;;;;;;;3.53;0.80;;;24.90;51.50;;;;;;4998475;28;20068;-77
2022/05/28 09:59:42;;;;;;;1.65;0.70;;;24.50;51.70;;;;;;4981703;28;20045;-77
2022/05/28 10:02:17;;;;;;;1.10;0.70;;;24.40;53.10;;;;;;5003875;28;20045;-78
2022/05/28 10:05:13;;;;;;;2.20;0.60;;;24.60;54.70;;;;;;5012293;28;20482;-78
2022/05/28 10:07:46;;;;;;;1.00;0.60;;;24.80;53.00;;;;;;5002336;28;20412;-77
2022/05/28 10:10:23;;;;;;;1.20;0.75;;;25.00;53.10;;;;;;4999370;28;20037;-80
2022/05/28 10:12:50;;;;;;;1.08;0.60;;;25.10;52.80;;;;;;4991127;28;20650;-80
2022/05/28 10:15:31;;;;;;;1.17;0.67;;;25.20;55.70;;;;;;4982974;28;20091;-80
2022/05/28 10:18:00;;;;;;;1.95;0.70;;;25.60;54.90;;;;;;4981267;28;20034;-77
2022/05/28 10:20:27;;;;;;;1.58;0.70;;;26.10;57.00;;;;;;4988280;28;20153;-77
2022/05/28 10:22:56;;;;;;;3.13;0.90;;;26.40;55.50;;;;;;4998599;28;20503;-77
2022/05/28 10:25:38;;;;;;;1.95;0.70;;;26.50;52.90;;;;;;4996898;28;20210;-81
2022/05/28 10:28:06;;;;;;;1.00;0.70;;;26.40;50.40;;;;;;4991622;28;20040;-81
2022/05/28 10:30:43;;;;;;;2.65;0.70;;;26.30;51.40;;;;;;4983870;28;20104;-80
2022/05/28 10:33:18;;;;;;;2.47;0.70;;;26.20;51.40;;;;;;5007529;28;20362;-77
2022/05/28 10:35:44;;;;;;;1.08;0.60;;;26.20;51.50;;;;;;4993389;28;20172;-81
2022/05/28 10:38:16;;;;;;;0.97;0.60;;;26.30;52.60;;;;;;4996481;28;20124;-80
2022/05/28 10:41:00;;;;;;;1.10;0.60;;;26.10;50.10;;;;;;5005138;28;20049;-80
2022/05/28 10:43:26;;;;;;;1.58;0.60;;;26.00;48.70;;;;;;5019024;28;20033;-80
2022/05/28 10:46:30;;;;;;;1.33;0.80;;;26.00;52.20;;;;;;4967013;28;20053;-81
2022/05/28 10:49:40;;;;;;;1.48;0.70;;;26.10;50.30;;;;;;4966827;28;20767;-80
2022/05/28 10:52:25;;;;;;;1.02;0.80;;;26.30;50.10;;;;;;4999909;28;20656;-80
2022/05/28 10:55:15;;;;;;;0.70;0.63;;;26.30;49.70;;;;;;4981674;28;20107;-80
2022/05/28 10:57:59;;;;;;;1.47;0.70;;;26.30;50.40;;;;;;4986835;28;20046;-80
2022/05/28 11:01:13;;;;;;;1.38;0.80;;;26.30;50.80;;;;;;4995514;28;20026;-79
2022/05/28 11:03:51;;;;;;;1.80;0.70;;;26.30;48.60;;;;;;4942597;28;20107;-80
2022/05/28 11:06:31;;;;;;;1.73;0.60;;;26.30;49.60;;;;;;4986068;28;20045;-81
2022/05/28 11:09:04;;;;;;;1.60;0.60;;;26.30;50.90;;;;;;5005764;28;20180;-81
2022/05/28 11:11:30;;;;;;;2.13;0.77;;;26.40;52.40;;;;;;4996488;28;20022;-81
2022/05/28 11:14:09;;;;;;;1.75;0.80;;;26.70;52.10;;;;;;5012153;28;20597;-80
2022/05/28 11:16:47;;;;;;;1.40;0.70;;;26.80;48.90;;;;;;5004445;28;20285;-80
2022/05/28 11:19:54;;;;;;;1.67;0.60;;;26.80;46.70;;;;;;5008424;28;20033;-82
2022/05/28 11:22:29;;;;;;;1.77;0.70;;;26.80;48.90;;;;;;4983310;28;20029;-80
2022/05/28 11:25:04;;;;;;;2.07;0.70;;;27.00;49.80;;;;;;4999429;28;20491;-82
2022/05/28 11:27:51;;;;;;;2.47;0.80;;;27.10;50.70;;;;;;5004540;28;20087;-80
2022/05/28 11:30:48;;;;;;;0.85;0.77;;;27.20;47.90;;;;;;4982704;28;20022;-81
2022/05/28 11:33:25;;;;;;;2.22;0.70;;;27.30;46.10;;;;;;4974026;28;20397;-76
2022/05/28 11:35:57;;;;;;;1.95;0.80;;;27.20;47.30;;;;;;4992022;28;21471;-78
2022/05/28 11:38:36;;;;;;;1.47;0.70;;;27.10;47.70;;;;;;4982437;28;20045;-78
2022/05/28 11:41:16;;;;;;;1.35;0.70;;;27.10;47.80;;;;;;5000570;28;20243;-78
2022/05/28 11:43:52;;;;;;;3.58;0.95;;;27.20;47.30;;;;;;5005841;28;20446;-77
2022/05/28 11:46:34;;;;;;;1.73;0.80;;;27.20;47.70;;;;;;5009332;28;20041;-77
2022/05/28 11:52:26;;;;;;;1.23;0.70;;;27.60;50.00;;;;;;5018301;28;20092;-81
2022/05/28 11:55:16;;;;;;;0.90;0.80;;;27.90;47.30;;;;;;4937970;28;20045;-80
2022/05/28 11:58:00;;;;;;;1.33;0.60;;;28.10;46.20;;;;;;4982354;28;20141;-81
2022/05/28 12:00:29;;;;;;;3.28;0.68;;;28.10;45.20;;;;;;4993323;28;20552;-80
2022/05/28 12:03:00;;;;;;;1.20;0.60;;;28.00;46.80;;;;;;4989941;28;20018;-81
2022/05/28 12:05:58;;;;;;;2.07;0.70;;;27.90;45.20;;;;;;4978867;28;20057;-80
2022/05/28 12:09:08;;;;;;;1.00;0.70;;;27.70;43.80;;;;;;4967346;28;20097;-80
2022/05/28 12:11:45;;;;;;;1.90;0.80;;;27.40;44.10;;;;;;4984404;28;20041;-81
2022/05/28 12:14:28;;;;;;;1.75;0.70;;;27.00;43.90;;;;;;5007532;28;20402;-79
2022/05/28 12:17:18;;;;;;;1.40;0.60;;;26.70;44.40;;;;;;4995355;28;20488;-80
2022/05/28 12:19:47;;;;;;;1.73;0.80;;;26.40;44.00;;;;;;4978816;28;20041;-81
2022/05/28 12:22:32;;;;;;;3.28;1.00;;;26.30;47.00;;;;;;4995686;28;20053;-80
2022/05/28 12:25:14;;;;;;;2.28;0.70;;;26.40;46.60;;;;;;5024607;28;20124;-81
2022/05/28 12:27:47;;;;;;;2.20;0.70;;;26.60;47.00;;;;;;5031400;28;20568;-80
2022/05/28 12:30:48;;;;;;;0.95;0.70;;;26.90;48.80;;;;;;4974147;28;20080;-81
2022/05/28 12:33:32;;;;;;;1.23;0.70;;;27.40;47.70;;;;;;4999011;28;20065;-80
2022/05/28 12:36:23;;;;;;;2.03;0.70;;;27.80;46.70;;;;;;4974471;28;20056;-81
2022/05/28 12:39:32;;;;;;;1.23;0.82;;;28.20;45.70;;;;;;4979259;28;24598;-81
2022/05/28 12:41:59;;;;;;;1.13;0.60;;;28.40;45.40;;;;;;5003013;28;20033;-80
2022/05/28 12:44:26;;;;;;;0.93;0.60;;;28.60;47.40;;;;;;5013758;28;20116;-80
2022/05/28 12:47:01;;;;;;;1.07;0.80;;;28.70;46.90;;;;;;4990298;28;20423;-81
2022/05/28 12:49:44;;;;;;;1.40;0.70;;;28.90;44.40;;;;;;4980504;28;20038;-81
2022/05/28 12:52:19;;;;;;;0.98;0.60;;;29.10;45.10;;;;;;4977854;28;20349;-81
2022/05/28 12:54:45;;;;;;;1.17;0.60;;;29.30;43.80;;;;;;4984352;28;20109;-80
2022/05/28 12:57:25;;;;;;;1.70;0.87;;;29.50;46.10;;;;;;4994173;28;20066;-79
2022/05/28 13:00:00;;;;;;;1.67;1.00;;;29.70;45.30;;;;;;4991292;28;20446;-78
2022/05/28 13:02:31;;;;;;;2.28;0.75;;;29.80;43.40;;;;;;4994279;28;20247;-77
2022/05/28 13:05:14;;;;;;;2.15;0.70;;;29.90;44.20;;;;;;5009877;28;20096;-80
2022/05/28 13:07:39;;;;;;;1.98;0.80;;;30.00;40.70;;;;;;5000212;28;20034;-80
2022/05/28 13:10:11;;;;;;;1.70;0.70;;;30.00;43.60;;;;;;4975050;28;20029;-79
2022/05/28 13:13:08;;;;;;;2.05;0.60;;;30.00;41.60;;;;;;5002962;28;21521;-79
2022/05/28 13:16:05;;;;;;;1.25;0.80;;;30.00;39.60;;;;;;4992327;28;20120;-79
2022/05/28 13:18:40;;;;;;;3.50;0.90;;;29.80;39.50;;;;;;5039857;27;23032;-79